createdAt,value
2023-02-07T00:02:21.101Z,-2.62
2023-02-07T00:04:51.823Z,-2.72
2023-02-07T00:07:22.807Z,-2.62
2023-02-07T00:09:53.280Z,-2.56
2023-02-07T00:12:25.302Z,-2.48
2023-02-07T00:14:56.161Z,-2.46
2023-02-07T00:17:27.076Z,-2.22
2023-02-07T00:19:57.590Z,-2.44
2023-02-07T00:22:28.336Z,-2.40
2023-02-07T00:24:59.517Z,-2.53
2023-02-07T00:27:30.385Z,-2.58
2023-02-07T00:30:01.256Z,-2.74
2023-02-07T00:32:35.659Z,-2.76
2023-02-07T00:35:07.038Z,-2.84
2023-02-07T00:37:37.557Z,-2.90
2023-02-07T00:40:08.922Z,-2.67
2023-02-07T00:42:39.458Z,-2.70
2023-02-07T00:45:10.765Z,-2.64
2023-02-07T00:47:41.373Z,-2.66
2023-02-07T00:50:11.994Z,-2.84
2023-02-07T00:52:42.520Z,-2.91
2023-02-07T00:55:13.135Z,-2.76
2023-02-07T00:57:44.356Z,-2.82
2023-02-07T01:00:15.451Z,-2.96
2023-02-07T01:02:47.036Z,-3.04
2023-02-07T01:05:19.261Z,-3.09
2023-02-07T01:07:50.825Z,-3.09
2023-02-07T01:10:24.174Z,-3.16
2023-02-07T01:12:54.966Z,-3.06
2023-02-07T01:15:25.644Z,-3.24
2023-02-07T01:17:57.958Z,-3.19
2023-02-07T01:20:30.179Z,-3.24
2023-02-07T01:23:00.659Z,-3.40
2023-02-07T01:25:31.661Z,-3.40
2023-02-07T01:28:02.204Z,-3.55
2023-02-07T01:30:33.256Z,-3.50
2023-02-07T01:33:04.001Z,-3.46
2023-02-07T01:35:38.861Z,-3.51
2023-02-07T01:38:11.172Z,-3.58
2023-02-07T01:40:43.502Z,-3.54
2023-02-07T01:43:17.041Z,-3.60
2023-02-07T01:45:47.724Z,-3.65
2023-02-07T01:48:30.373Z,-3.64
2023-02-07T01:51:04.213Z,-3.67
2023-02-07T01:53:37.232Z,-3.67
2023-02-07T01:56:12.008Z,-3.72
2023-02-07T01:58:42.320Z,-3.84
2023-02-07T02:01:16.089Z,-3.88
2023-02-07T02:03:48.753Z,-3.84
2023-02-07T02:06:22.922Z,-3.82
2023-02-07T02:09:00.783Z,-3.84
2023-02-07T02:11:34.559Z,-3.88
2023-02-07T02:14:36.869Z,-3.90
2023-02-07T02:17:16.365Z,-3.92
2023-02-07T02:20:10.208Z,-3.96
2023-02-07T02:23:17.633Z,-4.00
2023-02-07T02:25:57.761Z,-3.98
2023-02-07T02:28:52.797Z,-4.00
2023-02-07T02:31:44.775Z,-3.59
2023-02-07T02:34:30.421Z,-3.46
2023-02-07T02:37:23.683Z,-3.72
2023-02-07T02:40:12.824Z,-3.80
2023-02-07T02:42:49.226Z,-3.91
2023-02-07T02:45:25.343Z,-3.90
2023-02-07T02:47:57.054Z,-3.92
2023-02-07T02:50:32.203Z,-3.94
2023-02-07T02:53:04.096Z,-3.88
2023-02-07T02:55:57.201Z,-3.92
2023-02-07T02:58:30.893Z,-3.95
2023-02-07T03:01:07.669Z,-3.98
2023-02-07T03:04:01.357Z,-3.98
2023-02-07T03:06:56.197Z,-3.98
2023-02-07T03:09:46.482Z,-3.90
2023-02-07T03:12:28.852Z,-3.52
2023-02-07T03:15:19.190Z,-3.44
2023-02-07T03:18:13.766Z,-3.45
2023-02-07T03:20:47.368Z,-3.56
2023-02-07T03:23:20.974Z,-3.66
2023-02-07T03:25:53.681Z,-3.70
2023-02-07T03:28:26.677Z,-3.54
2023-02-07T03:31:00.119Z,-3.48
2023-02-07T03:33:32.440Z,-3.36
2023-02-07T03:36:17.811Z,-3.64
2023-02-07T03:38:48.695Z,-3.72
2023-02-07T03:41:25.001Z,-3.72
2023-02-07T03:43:58.139Z,-3.47
2023-02-07T03:46:31.833Z,-3.34
2023-02-07T03:49:02.930Z,-3.44
2023-02-07T03:51:33.353Z,-3.36
2023-02-07T03:54:05.516Z,-3.33
2023-02-07T03:56:38.178Z,-3.37
2023-02-07T03:59:10.169Z,-3.40
2023-02-07T04:01:42.632Z,-3.44
2023-02-07T04:04:13.624Z,-3.41
2023-02-07T04:06:45.804Z,-3.30
2023-02-07T04:09:17.223Z,-3.37
2023-02-07T04:11:52.743Z,-3.46
2023-02-07T04:14:23.415Z,-3.36
2023-02-07T04:16:54.108Z,-3.39
2023-02-07T04:19:24.904Z,-3.38
2023-02-07T04:21:55.388Z,-3.40
2023-02-07T04:24:26.251Z,-3.34
2023-02-07T04:26:56.639Z,-3.40
2023-02-07T04:29:27.336Z,-3.40
2023-02-07T04:31:59.091Z,-3.42
2023-02-07T04:34:29.596Z,-3.44
2023-02-07T04:37:00.772Z,-3.62
2023-02-07T04:39:31.126Z,-3.82
2023-02-07T04:42:01.596Z,-3.66
2023-02-07T04:44:32.228Z,-3.58
2023-02-07T04:47:02.675Z,-3.52
2023-02-07T04:49:34.600Z,-3.72
2023-02-07T04:52:07.050Z,-3.84
2023-02-07T04:54:37.645Z,-3.97
2023-02-07T04:57:08.020Z,-3.90
2023-02-07T04:59:38.908Z,-3.86
2023-02-07T05:02:09.556Z,-3.90
2023-02-07T05:04:40.151Z,-3.74
2023-02-07T05:07:14.774Z,-3.59
2023-02-07T05:09:43.052Z,-3.50
2023-02-07T05:12:14.359Z,-3.41
2023-02-07T05:14:47.556Z,-3.51
2023-02-07T05:17:18.042Z,-3.44
2023-02-07T05:19:49.944Z,-3.46
2023-02-07T05:22:20.336Z,-3.58
2023-02-07T05:24:50.939Z,-3.56
2023-02-07T05:27:21.595Z,-3.49
2023-02-07T05:29:53.221Z,-3.56
2023-02-07T05:32:42.252Z,-3.49
2023-02-07T05:35:14.197Z,-3.60
2023-02-07T05:37:48.498Z,-3.52
2023-02-07T05:40:19.326Z,-3.48
2023-02-07T05:42:51.485Z,-3.58
2023-02-07T05:45:23.106Z,-3.65
2023-02-07T05:47:53.620Z,-3.84
2023-02-07T05:50:24.614Z,-3.94
2023-02-07T05:52:55.168Z,-3.94
2023-02-07T05:55:25.813Z,-4.04
2023-02-07T05:57:57.022Z,-4.12
2023-02-07T06:00:27.599Z,-3.98
2023-02-07T06:02:58.137Z,-4.05
2023-02-07T06:05:30.419Z,-3.90
2023-02-07T06:08:00.977Z,-3.88
2023-02-07T06:10:43.446Z,-3.76
2023-02-07T06:13:14.121Z,-3.90
2023-02-07T06:15:46.286Z,-3.96
2023-02-07T06:18:16.885Z,-4.00
2023-02-07T06:20:50.115Z,-3.76
2023-02-07T06:23:23.014Z,-3.74
2023-02-07T06:25:53.605Z,-3.67
2023-02-07T06:28:25.126Z,-3.92
2023-02-07T06:30:56.045Z,-4.08
2023-02-07T06:33:26.561Z,-4.11
2023-02-07T06:35:58.711Z,-3.98
2023-02-07T06:38:29.480Z,-3.89
2023-02-07T06:41:01.962Z,-4.12
2023-02-07T06:43:33.936Z,-4.14
2023-02-07T06:46:04.700Z,-3.71
2023-02-07T06:48:37.095Z,-3.89
2023-02-07T06:51:08.136Z,-4.06
2023-02-07T06:53:38.779Z,-3.99
2023-02-07T06:56:09.372Z,-4.14
2023-02-07T06:58:41.635Z,-4.16
2023-02-07T07:01:16.389Z,-4.20
2023-02-07T07:03:49.852Z,-4.24
2023-02-07T07:06:20.368Z,-4.05
2023-02-07T07:08:51.810Z,-4.16
2023-02-07T07:11:22.702Z,-4.08
2023-02-07T07:13:53.356Z,-4.12
2023-02-07T07:16:31.417Z,-3.96
2023-02-07T07:19:02.382Z,-3.76
2023-02-07T07:21:33.510Z,-3.62
2023-02-07T07:24:05.367Z,-3.53
2023-02-07T07:26:48.380Z,-3.50
2023-02-07T07:29:08.314Z,-3.64
2023-02-07T07:31:38.881Z,-3.64
2023-02-07T07:34:11.401Z,-3.46
2023-02-07T07:36:42.116Z,-3.37
2023-02-07T07:39:13.286Z,-3.28
2023-02-07T07:41:44.290Z,-3.14
2023-02-07T07:44:16.240Z,-3.04
2023-02-07T07:46:48.552Z,-2.97
2023-02-07T07:49:20.816Z,-2.72
2023-02-07T07:51:51.375Z,-2.10
2023-02-07T07:54:23.440Z,-1.60
2023-02-07T07:56:54.081Z,-1.31
2023-02-07T07:59:26.180Z,-1.49
2023-02-07T08:01:56.673Z,-1.64
2023-02-07T08:04:27.269Z,-1.78
2023-02-07T08:06:57.799Z,-1.56
2023-02-07T08:09:31.354Z,-1.74
2023-02-07T08:12:01.877Z,-1.52
2023-02-07T08:14:32.397Z,-1.47
2023-02-07T08:17:03.044Z,-1.70
2023-02-07T08:19:33.717Z,-1.70
2023-02-07T08:22:06.326Z,-1.74
2023-02-07T08:24:36.899Z,-1.87
2023-02-07T08:27:07.551Z,-1.76
2023-02-07T08:29:56.658Z,-1.75
2023-02-07T08:32:27.215Z,-1.31
2023-02-07T08:34:57.746Z,-1.54
2023-02-07T08:37:29.767Z,-1.33
2023-02-07T08:40:00.477Z,-1.44
2023-02-07T08:42:30.891Z,-1.30
2023-02-07T08:45:01.476Z,-1.26
2023-02-07T08:47:32.498Z,-1.22
2023-02-07T08:50:04.740Z,-1.20
2023-02-07T08:52:36.899Z,-1.06
2023-02-07T08:55:12.135Z,-1.10
2023-02-07T08:57:42.718Z,-0.86
2023-02-07T09:00:15.461Z,-0.73
2023-02-07T09:02:50.653Z,-0.46
2023-02-07T09:05:22.885Z,-0.36
2023-02-07T09:07:53.354Z,-0.31
2023-02-07T09:10:23.851Z,-0.24
2023-02-07T09:12:54.740Z,-0.22
2023-02-07T09:15:26.166Z,-0.08
2023-02-07T09:17:57.452Z,0.12
2023-02-07T09:20:29.478Z,0.22
2023-02-07T09:23:19.417Z,0.35
2023-02-07T09:25:53.200Z,0.42
2023-02-07T09:28:23.744Z,0.51
2023-02-07T09:30:54.959Z,0.47
2023-02-07T09:33:25.834Z,0.79
2023-02-07T09:35:56.356Z,0.84
2023-02-07T09:38:26.899Z,0.91
2023-02-07T09:40:59.359Z,0.94
2023-02-07T09:43:52.846Z,1.29
2023-02-07T09:46:26.663Z,0.87
2023-02-07T09:49:09.606Z,1.26
2023-02-07T09:51:41.675Z,1.30
2023-02-07T09:54:21.370Z,1.20
2023-02-07T09:56:55.146Z,1.26
2023-02-07T09:59:48.487Z,1.18
2023-02-07T10:02:37.207Z,0.96
2023-02-07T10:05:14.724Z,0.70
2023-02-07T10:07:50.072Z,0.67
2023-02-07T10:10:23.523Z,0.76
2023-02-07T10:12:56.964Z,0.62
2023-02-07T10:15:42.996Z,0.54
2023-02-07T10:18:19.306Z,0.82
2023-02-07T10:21:02.676Z,1.02
2023-02-07T10:23:44.112Z,1.35
2023-02-07T10:26:20.383Z,1.42
2023-02-07T10:29:04.141Z,1.19
2023-02-07T10:31:39.324Z,0.98
2023-02-07T10:34:18.490Z,1.01
2023-02-07T10:36:52.514Z,1.21
2023-02-07T10:39:34.784Z,1.34
2023-02-07T10:42:07.982Z,1.49
2023-02-07T10:44:43.829Z,1.58
2023-02-07T10:47:19.128Z,1.62
2023-02-07T10:49:52.346Z,1.50
2023-02-07T10:52:36.188Z,1.34
2023-02-07T10:55:10.285Z,1.48
2023-02-07T10:57:45.908Z,1.44
2023-02-07T11:00:19.919Z,1.47
2023-02-07T11:03:14.737Z,1.94
2023-02-07T11:06:09.911Z,2.09
2023-02-07T11:08:45.142Z,2.28
2023-02-07T11:11:28.170Z,2.48
2023-02-07T11:14:04.506Z,1.98
2023-02-07T11:16:35.742Z,2.11
2023-02-07T11:19:08.274Z,2.19
2023-02-07T11:21:49.942Z,2.22
2023-02-07T11:24:25.260Z,2.27
2023-02-07T11:27:02.669Z,2.08
2023-02-07T11:29:39.211Z,2.34
2023-02-07T11:32:11.539Z,2.70
2023-02-07T11:34:46.082Z,2.92
2023-02-07T11:37:27.378Z,2.49
2023-02-07T11:40:17.697Z,2.69
2023-02-07T11:42:57.109Z,2.42
2023-02-07T11:45:30.374Z,2.38
2023-02-07T11:48:04.146Z,2.19
2023-02-07T11:50:39.707Z,2.41
2023-02-07T11:53:27.280Z,2.87
2023-02-07T11:55:58.493Z,2.97
2023-02-07T11:58:38.378Z,3.08
2023-02-07T12:01:09.708Z,2.33
2023-02-07T12:03:57.012Z,2.33
2023-02-07T12:06:31.077Z,2.30
2023-02-07T12:09:04.033Z,2.20
2023-02-07T12:11:37.696Z,1.87
2023-02-07T12:14:27.453Z,1.84
2023-02-07T12:17:01.194Z,2.18
2023-02-07T12:19:34.777Z,2.20
2023-02-07T12:22:23.684Z,2.42
2023-02-07T12:25:06.143Z,3.17
2023-02-07T12:27:39.653Z,4.14
2023-02-07T12:30:22.021Z,3.70
2023-02-07T12:33:00.382Z,3.64
2023-02-07T12:36:07.808Z,3.26
2023-02-07T12:39:16.858Z,2.86
2023-02-07T12:41:56.396Z,2.56
2023-02-07T12:44:37.816Z,2.60
2023-02-07T12:47:11.723Z,2.72
2023-02-07T12:49:57.440Z,2.62
2023-02-07T12:52:34.313Z,2.62
2023-02-07T12:55:29.117Z,2.95
2023-02-07T12:58:20.575Z,2.80
2023-02-07T13:01:03.400Z,2.74
2023-02-07T13:03:52.249Z,3.02
2023-02-07T13:06:40.809Z,3.05
2023-02-07T13:09:16.050Z,2.92
2023-02-07T13:12:10.925Z,2.72
2023-02-07T13:15:07.506Z,2.59
2023-02-07T13:17:57.312Z,2.48
2023-02-07T13:20:43.219Z,2.30
2023-02-07T13:23:22.467Z,2.64
2023-02-07T13:25:57.428Z,2.65
2023-02-07T13:28:33.991Z,2.56
2023-02-07T13:31:09.045Z,2.53
2023-02-07T13:33:44.020Z,2.63
2023-02-07T13:36:29.385Z,2.65
2023-02-07T13:39:02.991Z,2.42
2023-02-07T13:41:39.319Z,2.36
2023-02-07T13:44:17.362Z,2.30
2023-02-07T13:47:12.720Z,2.51
2023-02-07T13:49:51.943Z,2.33
2023-02-07T13:52:26.502Z,2.29
2023-02-07T13:55:16.266Z,2.18
2023-02-07T13:58:06.229Z,2.30
2023-02-07T14:00:44.572Z,2.24
2023-02-07T14:03:33.134Z,2.26
2023-02-07T14:06:25.839Z,2.07
2023-02-07T14:09:02.270Z,2.10
2023-02-07T14:11:44.988Z,2.07
2023-02-07T14:14:30.334Z,2.15
2023-02-07T14:17:09.193Z,2.16
2023-02-07T14:19:45.731Z,2.18
2023-02-07T14:22:23.166Z,2.28
2023-02-07T14:25:06.304Z,2.05
2023-02-07T14:27:44.821Z,2.14
2023-02-07T14:30:21.249Z,2.10
2023-02-07T14:33:07.908Z,2.12
2023-02-07T14:35:41.364Z,1.90
2023-02-07T14:38:23.984Z,1.88
2023-02-07T14:41:09.678Z,2.02
2023-02-07T14:43:36.075Z,1.99
2023-02-07T14:46:18.306Z,1.94
2023-02-07T14:48:57.018Z,2.04
2023-02-07T14:51:47.999Z,1.88
2023-02-07T14:54:42.152Z,1.90
2023-02-07T14:57:33.737Z,1.88
2023-02-07T15:00:10.636Z,1.88
2023-02-07T15:02:54.986Z,1.68
2023-02-07T15:05:35.230Z,1.66
2023-02-07T15:08:11.477Z,1.76
2023-02-07T15:11:01.196Z,1.74
2023-02-07T15:13:36.041Z,1.67
2023-02-07T15:16:10.021Z,1.66
2023-02-07T15:18:58.693Z,1.63
2023-02-07T15:21:37.772Z,1.63
2023-02-07T15:24:11.421Z,1.67
2023-02-07T15:26:42.298Z,1.48
2023-02-07T15:29:22.383Z,1.39
2023-02-07T15:31:55.754Z,1.24
2023-02-07T15:34:30.968Z,1.40
2023-02-07T15:37:03.891Z,1.36
2023-02-07T15:39:34.426Z,1.36
2023-02-07T15:42:06.643Z,1.27
2023-02-07T15:44:49.198Z,1.27
2023-02-07T15:47:36.792Z,1.18
2023-02-07T15:50:10.408Z,1.11
2023-02-07T15:52:49.479Z,1.12
2023-02-07T15:55:38.497Z,1.09
2023-02-07T15:58:10.851Z,0.98
2023-02-07T16:00:43.767Z,1.00
2023-02-07T16:03:20.303Z,1.02
2023-02-07T16:05:52.651Z,0.90
2023-02-07T16:08:32.158Z,0.96
2023-02-07T16:11:18.117Z,0.91
2023-02-07T16:13:55.819Z,0.78
2023-02-07T16:16:32.479Z,0.66
2023-02-07T16:19:09.351Z,0.66
2023-02-07T16:21:40.661Z,0.63
2023-02-07T16:24:14.237Z,0.60
2023-02-07T16:26:45.585Z,0.54
2023-02-07T16:29:22.486Z,0.42
2023-02-07T16:31:54.347Z,0.36
2023-02-07T16:34:28.962Z,0.38
2023-02-07T16:37:00.319Z,0.44
2023-02-07T16:39:30.831Z,0.44
2023-02-07T16:42:12.238Z,0.40
2023-02-07T16:44:43.297Z,0.37
2023-02-07T16:47:19.378Z,0.52
2023-02-07T16:49:49.994Z,0.45
2023-02-07T16:52:24.258Z,0.36
2023-02-07T16:54:55.569Z,0.38
2023-02-07T16:57:26.139Z,0.32
2023-02-07T16:59:56.928Z,0.32
2023-02-07T17:02:27.564Z,0.35
2023-02-07T17:04:58.024Z,0.32
2023-02-07T17:07:28.896Z,0.28
2023-02-07T17:10:00.291Z,0.22
2023-02-07T17:12:30.882Z,0.18
2023-02-07T17:15:04.102Z,0.18
2023-02-07T17:17:34.987Z,0.18
2023-02-07T17:20:08.383Z,0.23
2023-02-07T17:22:38.932Z,0.30
2023-02-07T17:25:09.786Z,0.41
2023-02-07T17:27:41.550Z,0.42
2023-02-07T17:30:32.361Z,0.38
2023-02-07T17:33:03.905Z,0.39
2023-02-07T17:35:35.705Z,0.26
2023-02-07T17:38:07.010Z,0.18
2023-02-07T17:40:40.157Z,0.28
2023-02-07T17:43:12.322Z,0.38
2023-02-07T17:45:42.816Z,0.34
2023-02-07T17:48:14.840Z,0.52
2023-02-07T17:50:45.815Z,0.66
2023-02-07T17:53:20.451Z,0.46
2023-02-07T17:55:53.721Z,0.61
2023-02-07T17:58:24.333Z,0.54
2023-02-07T18:00:57.483Z,0.54
2023-02-07T18:03:28.095Z,0.71
2023-02-07T18:06:01.264Z,0.64
2023-02-07T18:08:37.020Z,0.43
2023-02-07T18:11:08.704Z,0.28
2023-02-07T18:13:40.056Z,0.22
2023-02-07T18:16:16.710Z,0.20
2023-02-07T18:18:47.408Z,0.16
2023-02-07T18:21:19.445Z,0.12
2023-02-07T18:23:52.768Z,0.12
2023-02-07T18:26:24.125Z,0.02
2023-02-07T18:28:54.785Z,-0.06
2023-02-07T18:31:26.149Z,-0.02
2023-02-07T18:33:56.850Z,-0.12
2023-02-07T18:36:29.157Z,-0.11
2023-02-07T18:39:00.228Z,-0.02
2023-02-07T18:41:30.876Z,-0.14
2023-02-07T18:44:04.282Z,-0.14
2023-02-07T18:46:36.017Z,-0.16
2023-02-07T18:49:10.920Z,-0.15
2023-02-07T18:51:42.260Z,-0.36
2023-02-07T18:54:17.688Z,-0.46
2023-02-07T18:56:49.881Z,-0.50
2023-02-07T18:59:26.788Z,-0.60
2023-02-07T19:01:58.955Z,-0.64
2023-02-07T19:04:35.650Z,-0.55
2023-02-07T19:07:07.888Z,-0.52
2023-02-07T19:09:41.292Z,-0.38
2023-02-07T19:12:11.792Z,-0.40
2023-02-07T19:14:45.191Z,-0.36
2023-02-07T19:17:16.361Z,-0.47
2023-02-07T19:19:47.291Z,-0.56
2023-02-07T19:22:26.727Z,-0.38
2023-02-07T19:24:50.207Z,-0.30
2023-02-07T19:27:23.014Z,-0.56
2023-02-07T19:29:53.577Z,-0.71
2023-02-07T19:32:26.982Z,-0.34
2023-02-07T19:34:59.141Z,-0.42
2023-02-07T19:37:31.163Z,-0.60
2023-02-07T19:40:03.155Z,-0.46
2023-02-07T19:42:33.801Z,-0.36
2023-02-07T19:45:06.739Z,-0.38
2023-02-07T19:47:37.405Z,-0.24
2023-02-07T19:50:09.312Z,-0.32
2023-02-07T19:52:42.568Z,-0.36
2023-02-07T19:55:14.609Z,-0.43
2023-02-07T19:57:45.487Z,-0.44
2023-02-07T20:00:19.601Z,-0.42
2023-02-07T20:02:52.580Z,-0.42
2023-02-07T20:05:23.336Z,-0.56
2023-02-07T20:07:55.194Z,-0.46
2023-02-07T20:10:26.686Z,-0.47
2023-02-07T20:12:58.219Z,-0.52
2023-02-07T20:15:28.886Z,-0.52
2023-02-07T20:18:00.997Z,-0.55
2023-02-07T20:20:32.234Z,-0.44
2023-02-07T20:23:04.054Z,-0.44
2023-02-07T20:25:39.643Z,-0.70
2023-02-07T20:28:10.373Z,-0.44
2023-02-07T20:30:47.305Z,-0.50
2023-02-07T20:33:19.831Z,-0.50
2023-02-07T20:35:51.341Z,-0.58
2023-02-07T20:38:21.902Z,-0.52
2023-02-07T20:40:52.683Z,-0.54
2023-02-07T20:43:24.296Z,-0.61
2023-02-07T20:45:58.718Z,-0.49
2023-02-07T20:48:29.225Z,-0.41
2023-02-07T20:51:02.907Z,-0.52
2023-02-07T20:53:33.789Z,-0.60
2023-02-07T20:56:11.426Z,-0.54
2023-02-07T20:58:43.765Z,-0.56
2023-02-07T21:01:20.156Z,-0.66
2023-02-07T21:03:53.224Z,-0.73
2023-02-07T21:06:24.669Z,-0.76
2023-02-07T21:09:02.496Z,-0.74
2023-02-07T21:11:42.932Z,-0.82
2023-02-07T21:14:29.436Z,-0.78
2023-02-07T21:17:05.278Z,-0.84
2023-02-07T21:19:37.605Z,-0.79
2023-02-07T21:22:08.424Z,-0.82
2023-02-07T21:24:42.909Z,-0.78
2023-02-07T21:27:14.831Z,-0.72
2023-02-07T21:29:45.510Z,-0.84
2023-02-07T21:32:16.071Z,-0.87
2023-02-07T21:34:48.586Z,-0.82
2023-02-07T21:37:21.347Z,-0.82
2023-02-07T21:39:54.756Z,-0.89
2023-02-07T21:42:25.417Z,-1.00
2023-02-07T21:44:57.798Z,-0.82
2023-02-07T21:47:30.591Z,-0.90
2023-02-07T21:50:04.687Z,-0.90
2023-02-07T21:52:36.646Z,-1.02
2023-02-07T21:55:11.279Z,-0.92
2023-02-07T21:57:43.338Z,-1.04
2023-02-07T22:00:15.035Z,-0.92
2023-02-07T22:02:47.021Z,-0.94
2023-02-07T22:05:17.758Z,-0.88
2023-02-07T22:07:48.285Z,-0.94
2023-02-07T22:10:20.433Z,-0.90
2023-02-07T22:12:51.118Z,-0.97
2023-02-07T22:15:23.215Z,-0.92
2023-02-07T22:17:54.350Z,-1.04
2023-02-07T22:20:27.971Z,-1.16
2023-02-07T22:22:58.452Z,-1.30
2023-02-07T22:25:30.639Z,-1.42
2023-02-07T22:28:02.405Z,-1.28
2023-02-07T22:30:35.322Z,-1.34
2023-02-07T22:33:07.813Z,-1.05
2023-02-07T22:35:40.113Z,-1.03
2023-02-07T22:38:13.531Z,-0.99
2023-02-07T22:40:45.890Z,-0.96
2023-02-07T22:43:18.437Z,-1.06
2023-02-07T22:45:49.731Z,-1.02
2023-02-07T22:48:20.481Z,-1.08
2023-02-07T22:50:53.605Z,-1.12
2023-02-07T22:53:24.073Z,-0.98
2023-02-07T22:55:54.949Z,-1.10
2023-02-07T22:58:26.099Z,-1.29
2023-02-07T23:00:57.893Z,-1.30
2023-02-07T23:03:28.609Z,-1.25
2023-02-07T23:05:59.111Z,-1.18
2023-02-07T23:08:29.720Z,-1.24
2023-02-07T23:11:00.364Z,-1.43
2023-02-07T23:13:30.844Z,-1.54
2023-02-07T23:16:02.428Z,-1.69
2023-02-07T23:18:33.029Z,-1.66
2023-02-07T23:21:03.746Z,-1.54
2023-02-07T23:23:34.615Z,-1.58
2023-02-07T23:26:07.991Z,-1.56
2023-02-07T23:28:38.865Z,-1.60
2023-02-07T23:31:13.089Z,-1.58
2023-02-07T23:33:44.433Z,-1.38
2023-02-07T23:36:17.733Z,-1.40
2023-02-07T23:38:49.876Z,-1.43
2023-02-07T23:41:21.482Z,-1.41
2023-02-07T23:43:51.927Z,-1.48
2023-02-07T23:46:22.480Z,-1.35
2023-02-07T23:48:53.217Z,-1.33
2023-02-07T23:51:23.965Z,-1.44
2023-02-07T23:53:55.397Z,-1.28
2023-02-07T23:56:26.139Z,-1.46
2023-02-07T23:58:56.729Z,-1.61
